createdAt,value
2022-10-14T00:01:12.819Z,986.1
2022-10-14T00:03:14.652Z,986.1
2022-10-14T00:05:16.402Z,986.1
2022-10-14T00:07:17.581Z,986.2
2022-10-14T00:09:19.197Z,986.2
2022-10-14T00:11:20.716Z,986.1
2022-10-14T00:13:21.798Z,986.2
2022-10-14T00:15:23.514Z,986.1
2022-10-14T00:17:24.537Z,986.1
2022-10-14T00:19:25.648Z,986.1
2022-10-14T00:21:26.722Z,986.2
2022-10-14T00:23:28.233Z,986.2
2022-10-14T00:25:30.052Z,986.2
2022-10-14T00:27:31.918Z,986.1
2022-10-14T00:29:33.646Z,986.2
2022-10-14T00:31:35.320Z,986.2
2022-10-14T00:33:36.804Z,986.2
2022-10-14T00:35:38.306Z,986.2
2022-10-14T00:37:39.739Z,986.2
2022-10-14T00:39:41.623Z,986.3
2022-10-14T00:41:43.387Z,986.3
2022-10-14T00:43:44.795Z,986.3
2022-10-14T00:45:46.672Z,986.3
2022-10-14T00:49:49.641Z,986.1
2022-10-14T00:51:51.389Z,986.2
2022-10-14T00:53:53.220Z,986.2
2022-10-14T00:55:54.409Z,986.2
2022-10-14T00:57:55.653Z,986.2
2022-10-14T00:59:56.977Z,986.2
2022-10-14T01:01:58.804Z,986.2
2022-10-14T01:04:00.351Z,986.1
2022-10-14T01:06:01.797Z,986.2
2022-10-14T01:08:03.474Z,986.2
2022-10-14T01:10:05.358Z,986.1
2022-10-14T01:12:27.875Z,986.1
2022-10-14T01:14:08.678Z,986.1
2022-10-14T01:16:09.812Z,986.1
2022-10-14T01:18:11.374Z,986.1
2022-10-14T01:20:12.779Z,986.1
2022-10-14T01:22:15.953Z,986.1
2022-10-14T01:24:15.248Z,986
2022-10-14T01:26:16.612Z,986.1
2022-10-14T01:28:18.133Z,986
2022-10-14T01:30:19.854Z,986
2022-10-14T01:32:21.101Z,986
2022-10-14T01:34:22.207Z,986
2022-10-14T01:36:23.204Z,986
2022-10-14T01:38:24.453Z,985.9
2022-10-14T01:40:25.460Z,985.9
2022-10-14T01:42:26.643Z,985.9
2022-10-14T01:44:28.164Z,985.9
2022-10-14T01:46:29.241Z,985.9
2022-10-14T01:48:31.156Z,985.9
2022-10-14T01:50:32.870Z,985.7
2022-10-14T01:52:34.795Z,985.8
2022-10-14T01:54:35.972Z,985.8
2022-10-14T01:56:40.489Z,985.8
2022-10-14T01:58:38.697Z,985.8
2022-10-14T02:00:40.459Z,985.8
2022-10-14T02:02:41.708Z,985.9
2022-10-14T02:04:42.991Z,985.8
2022-10-14T02:06:44.254Z,985.7
2022-10-14T02:08:45.502Z,985.7
2022-10-14T02:10:47.199Z,985.7
2022-10-14T02:14:49.949Z,985.7
2022-10-14T02:16:51.270Z,985.7
2022-10-14T02:18:52.961Z,985.7
2022-10-14T02:20:54.699Z,985.7
2022-10-14T02:22:56.443Z,985.7
2022-10-14T02:24:57.494Z,985.7
2022-10-14T02:26:58.853Z,985.7
2022-10-14T02:29:00.146Z,985.6
2022-10-14T02:31:01.927Z,985.6
2022-10-14T02:33:03.022Z,985.7
2022-10-14T02:35:04.090Z,985.6
2022-10-14T02:37:05.126Z,985.6
2022-10-14T02:39:06.983Z,985.7
2022-10-14T02:41:52.355Z,985.6
2022-10-14T02:43:53.408Z,985.5
2022-10-14T02:45:54.908Z,985.5
2022-10-14T02:47:55.855Z,985.5
2022-10-14T02:49:57.401Z,985.5
2022-10-14T02:51:59.070Z,985.5
2022-10-14T02:54:00.539Z,985.5
2022-10-14T02:56:02.407Z,985.6
2022-10-14T02:58:03.667Z,985.6
2022-10-14T03:00:05.496Z,985.4
2022-10-14T03:02:06.477Z,985.5
2022-10-14T03:04:07.688Z,985.4
2022-10-14T03:06:08.604Z,985.4
2022-10-14T03:08:10.077Z,985.4
2022-10-14T03:10:11.213Z,985.4
2022-10-14T03:12:12.407Z,985.3
2022-10-14T03:14:14.263Z,985.4
2022-10-14T03:16:16.031Z,985.4
2022-10-14T03:18:16.962Z,985.4
2022-10-14T03:20:18.452Z,985.3
2022-10-14T03:22:20.359Z,985.3
2022-10-14T03:24:21.731Z,985.3
2022-10-14T03:26:23.413Z,985.2
2022-10-14T03:28:25.270Z,985.3
2022-10-14T03:30:26.188Z,985.2
2022-10-14T03:34:29.560Z,985.2
2022-10-14T03:36:31.104Z,985.2
2022-10-14T03:38:32.971Z,985.3
2022-10-14T03:40:34.152Z,985.2
2022-10-14T03:44:36.418Z,985
2022-10-14T03:46:38.152Z,985
2022-10-14T03:48:39.145Z,985
2022-10-14T03:50:40.719Z,985.1
2022-10-14T03:52:46.566Z,985.1
2022-10-14T03:54:43.940Z,985.1
2022-10-14T03:56:45.770Z,984.9
2022-10-14T03:58:46.910Z,985
2022-10-14T04:00:48.333Z,985.1
2022-10-14T04:02:49.830Z,984.9
2022-10-14T04:04:51.210Z,985
2022-10-14T04:06:52.789Z,985
2022-10-14T04:08:54.176Z,985
2022-10-14T04:10:55.524Z,985
2022-10-14T04:14:58.502Z,985
2022-10-14T04:17:00.087Z,985
2022-10-14T04:19:01.155Z,985
2022-10-14T04:21:02.380Z,984.9
2022-10-14T04:23:03.843Z,984.9
2022-10-14T04:25:05.156Z,984.9
2022-10-14T04:27:06.280Z,984.9
2022-10-14T04:29:08.096Z,984.8
2022-10-14T04:33:11.159Z,984.9
2022-10-14T04:35:12.818Z,984.8
2022-10-14T04:37:14.195Z,984.8
2022-10-14T04:39:15.594Z,984.8
2022-10-14T04:41:17.406Z,984.8
2022-10-14T04:43:19.245Z,984.8
2022-10-14T04:45:20.316Z,984.8
2022-10-14T04:47:22.066Z,984.8
2022-10-14T04:49:23.699Z,984.9
2022-10-14T04:51:24.826Z,984.9
2022-10-14T04:53:25.845Z,984.9
2022-10-14T04:55:27.242Z,984.9
2022-10-14T04:57:29.034Z,984.9
2022-10-14T04:59:30.729Z,984.8
2022-10-14T05:01:33.978Z,984.8
2022-10-14T05:03:33.371Z,984.8
2022-10-14T05:05:34.587Z,984.8
2022-10-14T05:07:35.873Z,984.8
2022-10-14T05:09:37.379Z,984.8
2022-10-14T05:11:38.817Z,984.7
2022-10-14T05:13:40.192Z,984.7
2022-10-14T05:15:41.229Z,984.6
2022-10-14T05:17:42.511Z,984.6
2022-10-14T05:19:43.620Z,984.6
2022-10-14T05:21:45.261Z,984.7
2022-10-14T05:23:46.680Z,984.7
2022-10-14T05:25:48.345Z,984.7
2022-10-14T05:27:49.935Z,984.6
2022-10-14T05:29:51.170Z,984.6
2022-10-14T05:31:52.655Z,984.6
2022-10-14T05:33:53.974Z,984.6
2022-10-14T05:35:59.300Z,984.5
2022-10-14T05:37:59.521Z,984.7
2022-10-14T05:39:58.589Z,984.7
2022-10-14T05:42:00.091Z,984.5
2022-10-14T05:44:01.895Z,984.6
2022-10-14T05:46:03.716Z,984.5
2022-10-14T05:48:05.090Z,984.5
2022-10-14T05:50:06.457Z,984.5
2022-10-14T05:52:07.658Z,984.3
2022-10-14T05:54:08.619Z,984.4
2022-10-14T05:58:11.576Z,984.5
2022-10-14T06:00:12.480Z,984.4
2022-10-14T06:02:14.386Z,984.4
2022-10-14T06:04:16.063Z,984.4
2022-10-14T06:08:19.199Z,984.4
2022-10-14T06:10:20.211Z,984.4
2022-10-14T06:12:22.200Z,984.4
2022-10-14T06:14:23.713Z,984.4
2022-10-14T06:16:24.817Z,984.4
2022-10-14T06:18:26.394Z,984.4
2022-10-14T06:20:35.630Z,984.5
2022-10-14T06:22:28.705Z,984.4
2022-10-14T06:24:37.781Z,984.3
2022-10-14T06:26:31.299Z,984.3
2022-10-14T06:28:32.936Z,984.3
2022-10-14T06:30:34.487Z,984.3
2022-10-14T06:32:35.614Z,984.3
2022-10-14T06:34:36.559Z,984.3
2022-10-14T06:36:37.769Z,984.3
2022-10-14T06:38:39.383Z,984.4
2022-10-14T06:40:40.885Z,984.5
2022-10-14T06:42:42.152Z,984.4
2022-10-14T06:44:43.361Z,984.4
2022-10-14T06:46:45.001Z,984.4
2022-10-14T06:48:50.123Z,984.5
2022-10-14T06:50:47.573Z,984.4
2022-10-14T06:52:48.621Z,984.4
2022-10-14T06:56:51.573Z,984.4
2022-10-14T06:58:52.468Z,984.5
2022-10-14T07:00:53.786Z,984.5
2022-10-14T07:02:55.286Z,984.5
2022-10-14T07:04:56.321Z,984.5
2022-10-14T07:06:57.716Z,984.5
2022-10-14T07:08:58.842Z,984.5
2022-10-14T07:11:00.094Z,984.5
2022-10-14T07:13:01.447Z,984.6
2022-10-14T07:15:02.704Z,984.4
2022-10-14T07:19:05.363Z,984.6
2022-10-14T07:21:06.734Z,984.5
2022-10-14T07:23:07.804Z,984.5
2022-10-14T07:25:09.115Z,984.5
2022-10-14T07:27:10.557Z,984.4
2022-10-14T07:29:11.781Z,984.4
2022-10-14T07:31:12.659Z,984.4
2022-10-14T07:33:14.125Z,984.4
2022-10-14T07:35:15.579Z,984.5
2022-10-14T07:39:18.786Z,984.5
2022-10-14T07:41:20.221Z,984.5
2022-10-14T07:43:21.214Z,984.4
2022-10-14T07:45:22.844Z,984.4
2022-10-14T07:49:25.818Z,984.4
2022-10-14T07:51:26.830Z,984.4
2022-10-14T07:53:28.408Z,984.4
2022-10-14T07:55:29.870Z,984.4
2022-10-14T07:57:31.212Z,984.5
2022-10-14T07:59:32.338Z,984.4
2022-10-14T08:01:34.189Z,984.5
2022-10-14T08:03:35.098Z,984.5
2022-10-14T08:05:38.362Z,984.5
2022-10-14T08:07:37.360Z,984.5
2022-10-14T08:09:38.730Z,984.6
2022-10-14T08:11:40.206Z,984.5
2022-10-14T08:13:43.471Z,984.5
2022-10-14T08:15:43.426Z,984.5
2022-10-14T08:19:46.766Z,984.5
2022-10-14T08:21:47.614Z,984.5
2022-10-14T08:23:48.984Z,984.4
2022-10-14T08:25:50.154Z,984.4
2022-10-14T08:27:51.492Z,984.4
2022-10-14T08:29:52.707Z,984.3
2022-10-14T08:31:53.655Z,984.3
2022-10-14T08:33:55.016Z,984.2
2022-10-14T08:35:55.966Z,984.2
2022-10-14T08:37:57.013Z,984.1
2022-10-14T08:39:58.701Z,984.2
2022-10-14T08:42:00.487Z,984.1
2022-10-14T08:44:01.400Z,984.3
2022-10-14T08:46:02.642Z,984.2
2022-10-14T08:48:04.151Z,984.1
2022-10-14T08:50:05.822Z,984.1
2022-10-14T08:54:10.158Z,984.2
2022-10-14T08:56:11.685Z,984.1
2022-10-14T08:58:13.263Z,984.2
2022-10-14T09:00:14.023Z,984.1
2022-10-14T09:02:15.578Z,984
2022-10-14T09:04:17.184Z,984.1
2022-10-14T09:06:18.218Z,984
2022-10-14T09:08:19.840Z,984.1
2022-10-14T09:10:20.925Z,984
2022-10-14T09:12:22.608Z,984.1
2022-10-14T09:14:23.519Z,984.1
2022-10-14T09:16:25.251Z,984.1
2022-10-14T09:18:26.707Z,984
2022-10-14T09:20:27.685Z,984
2022-10-14T09:22:29.353Z,984.1
2022-10-14T09:24:30.517Z,984
2022-10-14T09:27:15.335Z,984
2022-10-14T09:29:16.481Z,984
2022-10-14T09:31:17.592Z,984
2022-10-14T09:33:18.433Z,984.1
2022-10-14T09:35:19.646Z,984
2022-10-14T09:37:21.444Z,984
2022-10-14T09:39:22.314Z,984.1
2022-10-14T09:41:24.026Z,984
2022-10-14T09:43:25.317Z,983.9
2022-10-14T09:45:26.623Z,983.8
2022-10-14T09:47:27.691Z,983.8
2022-10-14T09:49:29.391Z,983.8
2022-10-14T09:51:31.046Z,983.8
2022-10-14T09:53:32.591Z,983.7
2022-10-14T09:55:34.372Z,983.7
2022-10-14T09:57:35.238Z,983.7
2022-10-14T09:59:36.545Z,983.7
2022-10-14T10:01:37.644Z,983.7
2022-10-14T10:03:39.080Z,983.6
2022-10-14T10:05:40.421Z,983.6
2022-10-14T10:07:41.603Z,983.7
2022-10-14T10:09:42.578Z,983.7
2022-10-14T10:11:44.063Z,983.7
2022-10-14T10:13:45.363Z,983.6
2022-10-14T10:15:47.112Z,983.7
2022-10-14T10:17:48.953Z,983.6
2022-10-14T10:19:49.856Z,983.5
2022-10-14T10:21:50.957Z,983.6
2022-10-14T10:23:52.638Z,983.5
2022-10-14T10:25:53.597Z,983.6
2022-10-14T10:29:56.196Z,983.4
2022-10-14T10:31:57.466Z,983.4
2022-10-14T10:33:58.570Z,983.4
2022-10-14T10:36:00.183Z,983.4
2022-10-14T10:38:01.256Z,983.3
2022-10-14T10:40:02.185Z,983.3
2022-10-14T10:42:03.791Z,983.3
2022-10-14T10:44:04.725Z,983.4
2022-10-14T10:46:05.960Z,983.3
2022-10-14T10:48:07.036Z,983.3
2022-10-14T10:50:08.860Z,983.3
2022-10-14T10:52:10.388Z,983.3
2022-10-14T10:54:11.603Z,983.3
2022-10-14T10:56:13.359Z,983.1
2022-10-14T10:58:14.322Z,983.2
2022-10-14T11:02:16.875Z,983.1
2022-10-14T11:04:18.057Z,983.2
2022-10-14T11:06:19.806Z,983.2
2022-10-14T11:08:20.943Z,983.2
2022-10-14T11:10:21.893Z,983
2022-10-14T11:12:23.539Z,983
2022-10-14T11:14:24.844Z,983
2022-10-14T11:16:25.993Z,983
2022-10-14T11:18:27.589Z,983
2022-10-14T11:20:28.479Z,982.9
2022-10-14T11:22:30.106Z,982.9
2022-10-14T11:24:31.498Z,982.9
2022-10-14T11:28:34.932Z,982.9
2022-10-14T11:30:35.874Z,982.9
2022-10-14T11:32:37.395Z,982.9
2022-10-14T11:34:38.587Z,982.9
2022-10-14T11:38:42.043Z,982.8
2022-10-14T11:40:43.734Z,982.7
2022-10-14T11:42:44.715Z,982.7
2022-10-14T11:44:46.423Z,982.7
2022-10-14T11:46:47.556Z,982.8
2022-10-14T11:48:49.296Z,982.7
2022-10-14T11:50:51.048Z,982.7
2022-10-14T11:52:52.629Z,982.6
2022-10-14T11:54:54.289Z,982.6
2022-10-14T11:57:03.915Z,982.7
2022-10-14T11:58:57.315Z,982.6
2022-10-14T12:00:58.914Z,982.6
2022-10-14T12:03:00.819Z,982.6
2022-10-14T12:05:02.170Z,982.5
2022-10-14T12:07:03.517Z,982.6
2022-10-14T12:11:06.552Z,982.5
2022-10-14T12:13:07.558Z,982.4
2022-10-14T12:15:09.190Z,982.4
2022-10-14T12:17:12.531Z,982.4
2022-10-14T12:21:13.461Z,982.4
2022-10-14T12:23:14.333Z,982.4
2022-10-14T12:27:17.390Z,982.2
2022-10-14T12:29:18.727Z,982.3
2022-10-14T12:31:20.091Z,982.3
2022-10-14T12:33:22.971Z,982.3
2022-10-14T12:35:22.925Z,982.3
2022-10-14T12:37:25.877Z,982.2
2022-10-14T12:39:25.409Z,982.2
2022-10-14T12:41:26.699Z,982.1
2022-10-14T12:43:28.285Z,982.1
2022-10-14T12:45:30.295Z,982.1
2022-10-14T12:47:31.310Z,982.2
2022-10-14T12:49:32.525Z,982.1
2022-10-14T12:51:33.532Z,982.2
2022-10-14T12:53:34.400Z,982.1
2022-10-14T12:55:35.831Z,982
2022-10-14T12:57:38.778Z,982.1
2022-10-14T12:59:38.557Z,982.1
2022-10-14T13:01:40.262Z,982
2022-10-14T13:03:41.919Z,982
2022-10-14T13:05:43.396Z,982
2022-10-14T13:07:45.214Z,982
2022-10-14T13:09:45.890Z,981.9
2022-10-14T13:11:47.599Z,981.9
2022-10-14T13:13:48.659Z,981.9
2022-10-14T13:15:49.556Z,981.9
2022-10-14T13:17:50.726Z,981.8
2022-10-14T13:19:51.997Z,982
2022-10-14T13:21:53.086Z,981.9
2022-10-14T13:23:54.883Z,981.9
2022-10-14T13:25:56.294Z,981.9
2022-10-14T13:27:57.756Z,981.8
2022-10-14T13:29:58.880Z,981.9
2022-10-14T13:31:59.776Z,981.9
2022-10-14T13:34:01.433Z,981.9
2022-10-14T13:36:02.349Z,981.8
2022-10-14T13:38:03.781Z,981.8
2022-10-14T13:40:05.510Z,981.8
2022-10-14T13:42:06.595Z,981.7
2022-10-14T13:44:08.044Z,981.8
2022-10-14T13:46:09.442Z,981.8
2022-10-14T13:48:10.682Z,981.8
2022-10-14T13:52:13.496Z,981.8
2022-10-14T13:54:15.105Z,981.8
2022-10-14T13:56:16.122Z,981.9
2022-10-14T13:58:17.650Z,981.9
2022-10-14T14:02:20.895Z,981.9
2022-10-14T14:04:21.872Z,982
2022-10-14T14:06:22.966Z,981.9
2022-10-14T14:08:41.771Z,982
2022-10-14T14:10:26.345Z,981.9
2022-10-14T14:12:27.681Z,981.8
2022-10-14T14:14:28.929Z,981.8
2022-10-14T14:16:29.846Z,981.7
2022-10-14T14:18:34.086Z,981.7
2022-10-14T14:20:31.850Z,981.7
2022-10-14T14:22:33.338Z,981.7
2022-10-14T14:24:34.588Z,981.6
2022-10-14T14:26:35.783Z,981.5
2022-10-14T14:28:36.956Z,981.5
2022-10-14T14:30:38.725Z,981.5
2022-10-14T14:32:39.683Z,981.4
2022-10-14T14:34:40.690Z,981.4
2022-10-14T14:36:51.015Z,981.3
2022-10-14T14:38:43.562Z,981.4
2022-10-14T14:40:44.996Z,981.3
2022-10-14T14:42:46.156Z,981.3
2022-10-14T14:44:47.042Z,981.3
2022-10-14T14:46:48.409Z,981.2
2022-10-14T14:48:53.482Z,981.2
2022-10-14T14:50:50.881Z,981.3
2022-10-14T14:52:52.432Z,981.2
2022-10-14T14:54:53.460Z,981.3
2022-10-14T14:56:55.238Z,981.2
2022-10-14T14:58:57.020Z,981.2
2022-10-14T15:00:57.981Z,981.1
2022-10-14T15:02:58.928Z,981.1
2022-10-14T15:07:01.496Z,981.1
2022-10-14T15:09:03.014Z,981.2
2022-10-14T15:11:04.035Z,981.1
2022-10-14T15:13:05.057Z,981.2
2022-10-14T15:15:06.904Z,981.1
2022-10-14T15:17:07.911Z,981
2022-10-14T15:19:08.755Z,981
2022-10-14T15:21:10.074Z,980.9
2022-10-14T15:23:11.594Z,981
2022-10-14T15:25:13.295Z,980.9
2022-10-14T15:27:14.555Z,980.8
2022-10-14T15:29:15.783Z,980.8
2022-10-14T15:33:18.134Z,980.7
2022-10-14T15:35:19.421Z,980.8
2022-10-14T15:37:20.702Z,980.8
2022-10-14T15:39:21.598Z,980.8
2022-10-14T15:41:23.131Z,980.8
2022-10-14T15:43:24.297Z,980.9
2022-10-14T15:45:25.359Z,980.9
2022-10-14T15:47:27.062Z,980.8
2022-10-14T15:49:28.673Z,981
2022-10-14T15:51:30.141Z,980.9
2022-10-14T15:53:31.432Z,980.9
2022-10-14T15:55:32.635Z,980.8
2022-10-14T15:57:34.185Z,980.9
2022-10-14T15:59:35.493Z,980.8
2022-10-14T16:01:36.396Z,980.8
2022-10-14T16:03:41.047Z,980.8
2022-10-14T16:05:39.010Z,980.8
2022-10-14T16:07:40.745Z,980.8
2022-10-14T16:09:41.908Z,980.8
2022-10-14T16:11:43.658Z,980.8
2022-10-14T16:12:27.450Z,980.8
2022-10-14T16:14:29.280Z,980.8
2022-10-14T16:16:30.942Z,980.8
2022-10-14T16:18:31.903Z,980.7
2022-10-14T16:20:33.147Z,980.8
2022-10-14T16:22:34.086Z,980.8
2022-10-14T16:26:36.805Z,980.8
2022-10-14T16:28:37.985Z,980.8
2022-10-14T16:30:39.162Z,980.8
2022-10-14T16:32:40.757Z,980.8
2022-10-14T16:34:41.660Z,980.8
2022-10-14T16:36:42.762Z,980.9
2022-10-14T16:38:43.744Z,980.7
2022-10-14T16:40:45.351Z,980.8
2022-10-14T16:42:46.608Z,980.7
2022-10-14T16:44:48.208Z,980.7
2022-10-14T16:46:49.215Z,980.6
2022-10-14T16:48:50.431Z,980.5
2022-10-14T16:50:51.901Z,980.5
2022-10-14T16:52:52.898Z,980.6
2022-10-14T16:54:54.575Z,980.5
2022-10-14T16:56:55.532Z,980.6
2022-10-14T16:58:56.488Z,980.5
2022-10-14T17:00:57.562Z,980.6
2022-10-14T17:02:59.076Z,980.6
2022-10-14T17:05:00.215Z,980.8
2022-10-14T17:07:01.376Z,980.8
2022-10-14T17:09:02.919Z,980.8
2022-10-14T17:11:04.138Z,980.8
2022-10-14T17:13:05.476Z,980.9
2022-10-14T17:15:07.022Z,980.7
2022-10-14T17:19:09.268Z,980.9
2022-10-14T17:21:10.697Z,980.9
2022-10-14T17:23:12.244Z,980.8
2022-10-14T17:25:13.184Z,980.7
2022-10-14T17:27:14.503Z,980.6
2022-10-14T17:29:15.627Z,980.6
2022-10-14T17:31:17.083Z,980.5
2022-10-14T17:33:18.673Z,980.5
2022-10-14T17:35:20.157Z,980.4
2022-10-14T17:37:21.868Z,980.4
2022-10-14T17:39:27.502Z,980.3
2022-10-14T17:41:24.368Z,980.3
2022-10-14T17:43:25.790Z,980.4
2022-10-14T17:45:27.530Z,980.4
2022-10-14T17:47:29.392Z,980.4
2022-10-14T17:49:30.653Z,980.5
2022-10-14T17:51:31.809Z,980.5
2022-10-14T17:53:32.846Z,980.7
2022-10-14T17:55:34.036Z,980.7
2022-10-14T17:57:35.556Z,980.8
2022-10-14T17:59:37.371Z,980.7
2022-10-14T18:01:57.740Z,980.7
2022-10-14T18:03:40.362Z,980.6
2022-10-14T18:07:42.951Z,980.5
2022-10-14T18:09:44.505Z,980.6
2022-10-14T18:12:08.033Z,980.5
2022-10-14T18:13:47.112Z,980.6
2022-10-14T18:15:48.108Z,980.6
2022-10-14T18:17:49.424Z,980.6
2022-10-14T18:19:52.441Z,980.7
2022-10-14T18:21:52.420Z,980.6
2022-10-14T18:23:54.180Z,980.6
2022-10-14T18:25:55.848Z,980.5
2022-10-14T18:27:57.335Z,980.6
2022-10-14T18:29:58.685Z,980.6
2022-10-14T18:32:00.423Z,980.5
2022-10-14T18:34:02.065Z,980.5
2022-10-14T18:36:03.833Z,980.5
2022-10-14T18:38:05.133Z,980.5
2022-10-14T18:40:06.844Z,980.5
2022-10-14T18:42:08.004Z,980.5
2022-10-14T18:44:09.816Z,980.4
2022-10-14T18:46:10.736Z,980.5
2022-10-14T18:48:11.724Z,980.4
2022-10-14T18:50:12.972Z,980.4
2022-10-14T18:52:14.250Z,980.3
2022-10-14T18:54:15.577Z,980.3
2022-10-14T18:56:17.435Z,980.4
2022-10-14T18:58:19.086Z,980.3
2022-10-14T19:00:20.530Z,980.3
2022-10-14T19:02:22.246Z,980.2
2022-10-14T19:04:23.623Z,980.3
2022-10-14T19:06:24.483Z,980.3
2022-10-14T19:08:25.867Z,980.2
2022-10-14T19:10:27.010Z,980.3
2022-10-14T19:12:28.379Z,980.3
2022-10-14T19:14:29.390Z,980.3
2022-10-14T19:16:31.266Z,980.3
2022-10-14T19:18:32.824Z,980.3
2022-10-14T19:20:34.377Z,980.4
2022-10-14T19:22:35.360Z,980.3
2022-10-14T19:24:36.668Z,980.2
2022-10-14T19:26:37.754Z,980.1
2022-10-14T19:28:39.054Z,980.3
2022-10-14T19:30:40.015Z,980.2
2022-10-14T19:32:41.011Z,980.1
2022-10-14T19:34:44.948Z,980
2022-10-14T19:36:43.286Z,980
2022-10-14T19:38:44.615Z,980
2022-10-14T19:40:46.485Z,980
2022-10-14T19:42:48.335Z,979.9
2022-10-14T19:44:50.242Z,979.9
2022-10-14T19:46:51.863Z,979.8
2022-10-14T19:48:52.862Z,979.9
2022-10-14T19:50:54.672Z,979.8
2022-10-14T19:52:56.506Z,979.8
2022-10-14T19:54:58.009Z,979.7
2022-10-14T19:56:58.961Z,979.8
2022-10-14T19:59:00.031Z,979.7
2022-10-14T20:01:01.756Z,979.7
2022-10-14T20:03:02.888Z,979.6
2022-10-14T20:05:04.681Z,979.6
2022-10-14T20:07:05.651Z,979.6
2022-10-14T20:09:06.952Z,979.6
2022-10-14T20:11:07.864Z,979.6
2022-10-14T20:13:09.496Z,979.5
2022-10-14T20:15:10.385Z,979.5
2022-10-14T20:17:11.435Z,979.5
2022-10-14T20:19:13.004Z,979.5
2022-10-14T20:21:14.541Z,979.5
2022-10-14T20:23:15.635Z,979.4
2022-10-14T20:25:17.104Z,979.4
2022-10-14T20:27:18.827Z,979.4
2022-10-14T20:31:21.736Z,979.4
2022-10-14T20:33:22.634Z,979.5
2022-10-14T20:35:24.305Z,979.4
2022-10-14T20:37:27.223Z,979.3
2022-10-14T20:39:26.419Z,979.4
2022-10-14T20:41:28.247Z,979.3
2022-10-14T20:43:29.706Z,979.3
2022-10-14T20:45:31.101Z,979.4
2022-10-14T20:47:32.244Z,979.4
2022-10-14T20:49:33.656Z,979.3
2022-10-14T20:51:34.922Z,979.2
2022-10-14T20:53:36.738Z,979.3
2022-10-14T20:55:37.630Z,979.2
2022-10-14T20:57:38.728Z,979.2
2022-10-14T20:59:40.119Z,979.2
2022-10-14T21:01:41.093Z,979.2
2022-10-14T21:03:42.078Z,979.3
2022-10-14T21:05:43.185Z,979.2
2022-10-14T21:07:44.293Z,979.2
2022-10-14T21:09:46.031Z,979.1
2022-10-14T21:13:48.403Z,979.1
2022-10-14T21:15:49.611Z,979
2022-10-14T21:17:51.327Z,979
2022-10-14T21:19:52.446Z,979
2022-10-14T21:21:53.467Z,979
2022-10-14T21:23:54.912Z,979
2022-10-14T21:25:56.070Z,978.9
2022-10-14T21:29:59.521Z,978.9
2022-10-14T21:32:00.765Z,978.8
2022-10-14T21:34:05.669Z,978.9
2022-10-14T21:36:04.240Z,978.8
2022-10-14T21:38:05.775Z,978.8
2022-10-14T21:40:07.455Z,978.7
2022-10-14T21:42:08.585Z,978.7
2022-10-14T21:44:10.372Z,978.7
2022-10-14T21:46:12.134Z,978.6
2022-10-14T21:48:13.457Z,978.6
2022-10-14T21:50:14.929Z,978.5
2022-10-14T21:52:16.081Z,978.6
2022-10-14T21:56:17.938Z,978.5
2022-10-14T21:58:19.543Z,978.4
2022-10-14T22:00:20.614Z,978.4
2022-10-14T22:02:21.823Z,978.5
2022-10-14T22:04:23.357Z,978.4
2022-10-14T22:06:24.951Z,978.4
2022-10-14T22:08:26.433Z,978.3
2022-10-14T22:10:27.759Z,978.4
2022-10-14T22:12:29.646Z,978.3
2022-10-14T22:14:30.921Z,978.3
2022-10-14T22:16:32.578Z,978.3
2022-10-14T22:18:34.399Z,978.2
2022-10-14T22:20:35.701Z,978.2
2022-10-14T22:22:36.982Z,978.1
2022-10-14T22:24:38.694Z,978.2
2022-10-14T22:26:39.788Z,978
2022-10-14T22:28:41.318Z,978
2022-10-14T22:30:42.977Z,978.2
2022-10-14T22:32:43.999Z,978.2
2022-10-14T22:34:45.701Z,978.2
2022-10-14T22:36:47.107Z,978.1
2022-10-14T22:38:48.236Z,977.9
2022-10-14T22:40:49.583Z,978
2022-10-14T22:42:51.435Z,978
2022-10-14T22:44:52.490Z,978.1
2022-10-14T22:46:53.927Z,978
2022-10-14T22:48:54.823Z,978
2022-10-14T22:50:56.286Z,978
2022-10-14T22:54:59.256Z,977.8
2022-10-14T22:57:00.186Z,977.9
2022-10-14T22:57:43.973Z,977.8
2022-10-14T22:59:45.100Z,977.9
2022-10-14T23:01:46.462Z,977.8
2022-10-14T23:05:48.964Z,977.8
2022-10-14T23:07:50.058Z,977.7
2022-10-14T23:09:51.938Z,977.7
2022-10-14T23:11:53.610Z,977.7
2022-10-14T23:13:55.419Z,977.7
2022-10-14T23:17:58.567Z,977.7
2022-10-14T23:20:00.297Z,977.7
2022-10-14T23:22:01.242Z,977.7
2022-10-14T23:24:02.785Z,977.8
2022-10-14T23:26:03.906Z,977.8
2022-10-14T23:28:05.593Z,977.8
2022-10-14T23:30:06.870Z,977.8
2022-10-14T23:32:07.887Z,977.7
2022-10-14T23:34:09.617Z,977.6
2022-10-14T23:36:11.106Z,977.7
2022-10-14T23:38:12.222Z,977.7
2022-10-14T23:40:14.070Z,977.6
2022-10-14T23:42:15.336Z,977.7
2022-10-14T23:44:16.885Z,977.6
2022-10-14T23:46:18.449Z,977.7
2022-10-14T23:48:19.576Z,977.6
2022-10-14T23:50:20.927Z,977.5
2022-10-14T23:52:22.206Z,977.5
2022-10-14T23:54:24.134Z,977.5
2022-10-14T23:56:25.902Z,977.5
2022-10-14T23:58:27.488Z,977.5
